Mary Bennett — WDC4592 — position and weather

sailwx.info

Track history (hours):
 
Tides and Currents Weather Stations Pressure Air Temp Water Temp Dewpoint Dewpoint Depression Visibility Wind Speed Wind Dir Waves Ship Positions

Mary Bennett

Owner: Savannah Marine Services, Savannah, GA. More information available from US FCC via Universal Licensing System and Coast Guard Vessel Documentation Center.

Last reported at 2017-Feb-23 18:31 UTC. Time now 2017-Feb-23 18:42 UTC.
Position N 32°16' W 080°44'.

Length 21 m; draft 2.3 m.

Type: Tug. MMSI: 367027140.

Date/timePositionNaut miles runAvg speedWind from/ knotsBaromVisibWave heightAir tempDewpointWater temp
2017-Feb-23 18:31N 32°16' W 080°44'0 0.0
2017-Feb-23 17:33N 32°16' W 080°44'0 0.0
2017-Feb-22 10:33N 32°16' W 080°44'0 0.0
2017-Feb-22 09:32N 32°16' W 080°44'0 0.0
2017-Feb-22 08:33N 32°16' W 080°44'0 0.0
2017-Feb-22 07:29N 32°16' W 080°44'0 0.0
2017-Feb-22 06:33N 32°16' W 080°44'0 0.0
2017-Feb-22 05:33N 32°16' W 080°44'0 0.0
2017-Feb-22 04:33N 32°16' W 080°44'0 0.0
2017-Feb-22 03:33N 32°16' W 080°44'0 0.0
2017-Feb-22 02:33N 32°16' W 080°44'0 0.0
2017-Feb-22 01:19N 32°16' W 080°44'0 0.0
2017-Feb-22 00:33N 32°16' W 080°44'0 0.0
2017-Feb-21 23:33N 32°16' W 080°44'0 0.0
2017-Feb-21 22:32N 32°16' W 080°44'0 0.1
2017-Feb-21 20:32N 32°16' W 080°44'0 0.1
2017-Feb-21 19:17N 32°16' W 080°44'0 0.0
2017-Feb-21 18:30N 32°16' W 080°44'0 0.0
2017-Feb-21 17:22N 32°16' W 080°44'0 0.1
2017-Feb-21 16:29N 32°16' W 080°44'0 0.2
2017-Feb-21 15:19N 32°16' W 080°44'0 0.2
2017-Feb-21 14:33N 32°16' W 080°44'0 0.0
2017-Feb-21 13:33N 32°16' W 080°44'0 0.1
2017-Feb-21 12:19N 32°16' W 080°44'0 0.0
2017-Feb-21 08:28N 32°16' W 080°44'7 7.3
2017-Feb-21 07:33N 32°10' W 080°48'7 7.5
2017-Feb-21 06:33N 32°05' W 080°55'8 7.7
2017-Feb-21 05:33N 32°05' W 081°04'2 1.6
2017-Feb-21 04:33N 32°05' W 081°06'0 0.0
2017-Feb-21 03:33N 32°05' W 081°06'0 0.0
2017-Feb-21 02:33N 32°05' W 081°06'0 0.0
2017-Feb-21 01:33N 32°05' W 081°06'6 6.5
2017-Feb-21 00:33N 32°04' W 080°58'6 6.2
2017-Feb-20 23:33N 32°08' W 080°52'8 8.0
2017-Feb-20 22:33N 32°14' W 080°46'3 1.1
2017-Feb-20 20:12N 32°16' W 080°44'0 0.0
2017-Feb-20 19:13N 32°16' W 080°44'0 0.0
2017-Feb-20 18:29N 32°16' W 080°44'0 0.0
2017-Feb-20 17:03N 32°16' W 080°44'0 0.2
2017-Feb-20 16:28N 32°16' W 080°44'0 0.2
2017-Feb-20 15:31N 32°16' W 080°44'0 0.0
2017-Feb-20 14:27N 32°16' W 080°44'0 0.0
2017-Feb-20 13:33N 32°16' W 080°44'0 0.0
2017-Feb-20 12:33N 32°16' W 080°44'0 0.1
2017-Feb-20 11:33N 32°16' W 080°44'0 0.0
2017-Feb-20 10:33N 32°16' W 080°44'0 0.0
2017-Feb-20 09:33N 32°16' W 080°44'0 0.0
2017-Feb-20 08:33N 32°16' W 080°44'0 0.0
2017-Feb-20 07:33N 32°16' W 080°44'0 0.0
2017-Feb-20 06:23N 32°16' W 080°44'0 0.0
2017-Feb-20 05:33N 32°16' W 080°44'0 0.0
2017-Feb-20 04:33N 32°16' W 080°44'0 0.0
2017-Feb-20 03:31N 32°16' W 080°44'0 0.0
2017-Feb-20 02:32N 32°16' W 080°44'0 0.0
2017-Feb-20 00:29N 32°16' W 080°44'0 0.0
2017-Feb-19 17:31N 32°16' W 080°44'0 0.1
2017-Feb-19 16:31N 32°16' W 080°44'0 0.0
2017-Feb-19 11:20N 32°16' W 080°44'0 0.0
2017-Feb-19 10:32N 32°16' W 080°44'0 0.0
2017-Feb-19 09:24N 32°16' W 080°44'0 0.0
2017-Feb-19 08:34N 32°16' W 080°44'0 0.0
2017-Feb-19 07:34N 32°16' W 080°44'0 0.0
2017-Feb-19 06:33N 32°16' W 080°44'0 0.0
2017-Feb-19 05:34N 32°16' W 080°44'0 0.0
2017-Feb-19 04:34N 32°16' W 080°44'0 0.0
2017-Feb-19 03:34N 32°16' W 080°44'0 0.0
2017-Feb-19 02:34N 32°16' W 080°44'0 0.0
2017-Feb-19 01:34N 32°16' W 080°44'0 0.0
2017-Feb-19 00:16N 32°16' W 080°44'0 0.0
2017-Feb-18 22:21N 32°16' W 080°44'0 0.0
2017-Feb-18 21:32N 32°16' W 080°44'0 0.1
2017-Feb-18 18:22N 32°16' W 080°44'0 0.2
2017-Feb-18 17:24N 32°16' W 080°44'6 2.2
2017-Feb-18 14:33N 32°13' W 080°38'0 0.0
2017-Feb-18 13:34N 32°13' W 080°38'0 0.1
2017-Feb-18 12:34N 32°13' W 080°38'6 6.3
2017-Feb-18 11:33N 32°16' W 080°44'0 0.0
2017-Feb-18 10:34N 32°16' W 080°44'0 0.0
2017-Feb-18 09:34N 32°16' W 080°44'0 0.0
2017-Feb-18 08:33N 32°16' W 080°44'0 0.0
2017-Feb-18 07:33N 32°16' W 080°44'0 0.0
2017-Feb-18 06:34N 32°16' W 080°44'0 0.0
2017-Feb-18 05:33N 32°16' W 080°44'0 0.0
2017-Feb-18 04:33N 32°16' W 080°44'0 0.0
2017-Feb-18 03:33N 32°16' W 080°44'0 0.0
2017-Feb-18 02:34N 32°16' W 080°44'0 0.0
2017-Feb-18 01:33N 32°16' W 080°44'0 0.0
2017-Feb-18 00:34N 32°16' W 080°44'0 0.0
2017-Feb-17 23:33N 32°16' W 080°44'0 0.0
2017-Feb-17 22:34N 32°16' W 080°44'0 0.0
2017-Feb-17 21:33N 32°16' W 080°44'0 0.0
2017-Feb-17 20:33N 32°16' W 080°44'0 0.0
2017-Feb-17 19:33N 32°16' W 080°44'0 0.0
2017-Feb-17 18:33N 32°16' W 080°44'0 0.0
2017-Feb-17 17:32N 32°16' W 080°44'0 0.0
2017-Feb-17 16:27N 32°16' W 080°44'2 2.3
2017-Feb-17 15:31N 32°14' W 080°46'5 5.3
2017-Feb-17 14:34N 32°09' W 080°48'0 0.1
2017-Feb-17 13:29N 32°09' W 080°48'0 0.0
2017-Feb-17 12:33N 32°09' W 080°48'0 0.0
2017-Feb-17 11:33N 32°09' W 080°48'0 0.0
2017-Feb-17 10:33N 32°09' W 080°48'0 0.0
2017-Feb-17 09:34N 32°09' W 080°48'0 0.0
2017-Feb-17 08:34N 32°09' W 080°48'0 0.0
2017-Feb-17 07:33N 32°09' W 080°48'3 3.2
2017-Feb-17 06:32N 32°12' W 080°47'3 3.3
2017-Feb-17 05:34N 32°09' W 080°48'0 0.0
2017-Feb-17 04:34N 32°09' W 080°48'0 0.0
2017-Feb-17 03:34N 32°09' W 080°48'0 0.0
2017-Feb-17 02:34N 32°09' W 080°48'0 0.0
2017-Feb-17 01:34N 32°09' W 080°48'0 0.0
2017-Feb-17 00:34N 32°09' W 080°48'0 0.0
2017-Feb-16 23:34N 32°09' W 080°48'0 0.0
2017-Feb-16 22:34N 32°09' W 080°48'0 0.0
2017-Feb-16 21:08N 32°09' W 080°48'0 0.0
2017-Feb-16 19:33N 32°09' W 080°48'0 0.0
2017-Feb-16 16:31N 32°09' W 080°48'3 3.5
2017-Feb-16 15:33N 32°13' W 080°47'4 4.0
2017-Feb-16 14:33N 32°16' W 080°44'0 0.0
2017-Feb-16 13:31N 32°16' W 080°44'0 0.0
2017-Feb-16 12:30N 32°16' W 080°44'0 0.1
2017-Feb-16 11:31N 32°16' W 080°44'0 0.0
2017-Feb-16 10:33N 32°16' W 080°44'0 0.0
2017-Feb-16 09:33N 32°16' W 080°44'0 0.0
2017-Feb-16 08:33N 32°16' W 080°44'0 0.0
2017-Feb-16 07:31N 32°16' W 080°44'0 0.0
2017-Feb-16 06:32N 32°16' W 080°44'0 0.0
2017-Feb-16 05:27N 32°16' W 080°44'0 0.0
2017-Feb-15 16:19N 32°16' W 080°44'0 0.1
2017-Feb-15 15:32N 32°16' W 080°44'0 0.0
2017-Feb-15 04:15N 32°16' W 080°44'0 0.0
2017-Feb-14 15:17N 32°16' W 080°44'0 0.0
2017-Feb-14 14:32N 32°16' W 080°44'0 0.0
2017-Feb-14 13:33N 32°16' W 080°44'0 0.0
2017-Feb-14 12:33N 32°16' W 080°44'0 0.0
2017-Feb-14 11:33N 32°16' W 080°44'0 0.0
2017-Feb-14 10:33N 32°16' W 080°44'0 0.0
2017-Feb-14 09:33N 32°16' W 080°44'0 0.0
2017-Feb-14 08:33N 32°16' W 080°44'0 0.0
2017-Feb-14 07:33N 32°16' W 080°44'0 0.0
2017-Feb-14 06:33N 32°16' W 080°44'0 0.0
2017-Feb-14 05:29N 32°16' W 080°44'0 0.0
2017-Feb-14 04:32N 32°16' W 080°44'0 0.0
2017-Feb-14 03:33N 32°16' W 080°44'0 0.0
2017-Feb-14 02:33N 32°16' W 080°44'0 0.0
2017-Feb-14 01:33N 32°16' W 080°44'0 0.0
2017-Feb-14 00:33N 32°16' W 080°44'0 0.0
2017-Feb-13 23:33N 32°16' W 080°44'0 0.0
2017-Feb-13 22:32N 32°16' W 080°44'  
Track history (hours):
 
Tides and Currents Weather Stations Pressure Air Temp Water Temp Dewpoint Dewpoint Depression Visibility Wind Speed Wind Dir Waves Ship Positions

Mary Bennett

Owner: Savannah Marine Services, Savannah, GA. More information available from US FCC via Universal Licensing System and Coast Guard Vessel Documentation Center.

Last reported at 2017-Feb-23 18:31 UTC. Time now 2017-Feb-23 18:42 UTC.
Position N 32°16' W 080°44'.

Length 21 m; draft 2.3 m.

Type: Tug. MMSI: 367027140.

Date/timePositionNaut miles runAvg speedWind from/ knotsBaromVisibWave heightAir tempDewpointWater temp
2017-Feb-23 18:31N 32°16' W 080°44'0 0.0
2017-Feb-23 17:33N 32°16' W 080°44'0 0.0
2017-Feb-22 10:33N 32°16' W 080°44'0 0.0
2017-Feb-22 09:32N 32°16' W 080°44'0 0.0
2017-Feb-22 08:33N 32°16' W 080°44'0 0.0
2017-Feb-22 07:29N 32°16' W 080°44'0 0.0
2017-Feb-22 06:33N 32°16' W 080°44'0 0.0
2017-Feb-22 05:33N 32°16' W 080°44'0 0.0
2017-Feb-22 04:33N 32°16' W 080°44'0 0.0
2017-Feb-22 03:33N 32°16' W 080°44'0 0.0
2017-Feb-22 02:33N 32°16' W 080°44'0 0.0
2017-Feb-22 01:19N 32°16' W 080°44'0 0.0
2017-Feb-22 00:33N 32°16' W 080°44'0 0.0
2017-Feb-21 23:33N 32°16' W 080°44'0 0.0
2017-Feb-21 22:32N 32°16' W 080°44'0 0.1
2017-Feb-21 20:32N 32°16' W 080°44'0 0.1
2017-Feb-21 19:17N 32°16' W 080°44'0 0.0
2017-Feb-21 18:30N 32°16' W 080°44'0 0.0
2017-Feb-21 17:22N 32°16' W 080°44'0 0.1
2017-Feb-21 16:29N 32°16' W 080°44'0 0.2
2017-Feb-21 15:19N 32°16' W 080°44'0 0.2
2017-Feb-21 14:33N 32°16' W 080°44'0 0.0
2017-Feb-21 13:33N 32°16' W 080°44'0 0.1
2017-Feb-21 12:19N 32°16' W 080°44'0 0.0
2017-Feb-21 08:28N 32°16' W 080°44'7 7.3
2017-Feb-21 07:33N 32°10' W 080°48'7 7.5
2017-Feb-21 06:33N 32°05' W 080°55'8 7.7
2017-Feb-21 05:33N 32°05' W 081°04'2 1.6
2017-Feb-21 04:33N 32°05' W 081°06'0 0.0
2017-Feb-21 03:33N 32°05' W 081°06'0 0.0
2017-Feb-21 02:33N 32°05' W 081°06'0 0.0
2017-Feb-21 01:33N 32°05' W 081°06'6 6.5
2017-Feb-21 00:33N 32°04' W 080°58'6 6.2
2017-Feb-20 23:33N 32°08' W 080°52'8 8.0
2017-Feb-20 22:33N 32°14' W 080°46'3 1.1
2017-Feb-20 20:12N 32°16' W 080°44'0 0.0
2017-Feb-20 19:13N 32°16' W 080°44'0 0.0
2017-Feb-20 18:29N 32°16' W 080°44'0 0.0
2017-Feb-20 17:03N 32°16' W 080°44'0 0.2
2017-Feb-20 16:28N 32°16' W 080°44'0 0.2
2017-Feb-20 15:31N 32°16' W 080°44'0 0.0
2017-Feb-20 14:27N 32°16' W 080°44'0 0.0
2017-Feb-20 13:33N 32°16' W 080°44'0 0.0
2017-Feb-20 12:33N 32°16' W 080°44'0 0.1
2017-Feb-20 11:33N 32°16' W 080°44'0 0.0
2017-Feb-20 10:33N 32°16' W 080°44'0 0.0
2017-Feb-20 09:33N 32°16' W 080°44'0 0.0
2017-Feb-20 08:33N 32°16' W 080°44'0 0.0
2017-Feb-20 07:33N 32°16' W 080°44'0 0.0
2017-Feb-20 06:23N 32°16' W 080°44'0 0.0
2017-Feb-20 05:33N 32°16' W 080°44'0 0.0
2017-Feb-20 04:33N 32°16' W 080°44'0 0.0
2017-Feb-20 03:31N 32°16' W 080°44'0 0.0
2017-Feb-20 02:32N 32°16' W 080°44'0 0.0
2017-Feb-20 00:29N 32°16' W 080°44'0 0.0
2017-Feb-19 17:31N 32°16' W 080°44'0 0.1
2017-Feb-19 16:31N 32°16' W 080°44'0 0.0
2017-Feb-19 11:20N 32°16' W 080°44'0 0.0
2017-Feb-19 10:32N 32°16' W 080°44'0 0.0
2017-Feb-19 09:24N 32°16' W 080°44'0 0.0
2017-Feb-19 08:34N 32°16' W 080°44'0 0.0
2017-Feb-19 07:34N 32°16' W 080°44'0 0.0
2017-Feb-19 06:33N 32°16' W 080°44'0 0.0
2017-Feb-19 05:34N 32°16' W 080°44'0 0.0
2017-Feb-19 04:34N 32°16' W 080°44'0 0.0
2017-Feb-19 03:34N 32°16' W 080°44'0 0.0
2017-Feb-19 02:34N 32°16' W 080°44'0 0.0
2017-Feb-19 01:34N 32°16' W 080°44'0 0.0
2017-Feb-19 00:16N 32°16' W 080°44'0 0.0
2017-Feb-18 22:21N 32°16' W 080°44'0 0.0
2017-Feb-18 21:32N 32°16' W 080°44'0 0.1
2017-Feb-18 18:22N 32°16' W 080°44'0 0.2
2017-Feb-18 17:24N 32°16' W 080°44'6 2.2
2017-Feb-18 14:33N 32°13' W 080°38'0 0.0
2017-Feb-18 13:34N 32°13' W 080°38'0 0.1
2017-Feb-18 12:34N 32°13' W 080°38'6 6.3
2017-Feb-18 11:33N 32°16' W 080°44'0 0.0
2017-Feb-18 10:34N 32°16' W 080°44'0 0.0
2017-Feb-18 09:34N 32°16' W 080°44'0 0.0
2017-Feb-18 08:33N 32°16' W 080°44'0 0.0
2017-Feb-18 07:33N 32°16' W 080°44'0 0.0
2017-Feb-18 06:34N 32°16' W 080°44'0 0.0
2017-Feb-18 05:33N 32°16' W 080°44'0 0.0
2017-Feb-18 04:33N 32°16' W 080°44'0 0.0
2017-Feb-18 03:33N 32°16' W 080°44'0 0.0
2017-Feb-18 02:34N 32°16' W 080°44'0 0.0
2017-Feb-18 01:33N 32°16' W 080°44'0 0.0
2017-Feb-18 00:34N 32°16' W 080°44'0 0.0
2017-Feb-17 23:33N 32°16' W 080°44'0 0.0
2017-Feb-17 22:34N 32°16' W 080°44'0 0.0
2017-Feb-17 21:33N 32°16' W 080°44'0 0.0
2017-Feb-17 20:33N 32°16' W 080°44'0 0.0
2017-Feb-17 19:33N 32°16' W 080°44'0 0.0
2017-Feb-17 18:33N 32°16' W 080°44'0 0.0
2017-Feb-17 17:32N 32°16' W 080°44'0 0.0
2017-Feb-17 16:27N 32°16' W 080°44'2 2.3
2017-Feb-17 15:31N 32°14' W 080°46'5 5.3
2017-Feb-17 14:34N 32°09' W 080°48'0 0.1
2017-Feb-17 13:29N 32°09' W 080°48'0 0.0
2017-Feb-17 12:33N 32°09' W 080°48'0 0.0
2017-Feb-17 11:33N 32°09' W 080°48'0 0.0
2017-Feb-17 10:33N 32°09' W 080°48'0 0.0
2017-Feb-17 09:34N 32°09' W 080°48'0 0.0
2017-Feb-17 08:34N 32°09' W 080°48'0 0.0
2017-Feb-17 07:33N 32°09' W 080°48'3 3.2
2017-Feb-17 06:32N 32°12' W 080°47'3 3.3
2017-Feb-17 05:34N 32°09' W 080°48'0 0.0
2017-Feb-17 04:34N 32°09' W 080°48'0 0.0
2017-Feb-17 03:34N 32°09' W 080°48'0 0.0
2017-Feb-17 02:34N 32°09' W 080°48'0 0.0
2017-Feb-17 01:34N 32°09' W 080°48'0 0.0
2017-Feb-17 00:34N 32°09' W 080°48'0 0.0
2017-Feb-16 23:34N 32°09' W 080°48'0 0.0
2017-Feb-16 22:34N 32°09' W 080°48'0 0.0
2017-Feb-16 21:08N 32°09' W 080°48'0 0.0
2017-Feb-16 19:33N 32°09' W 080°48'0 0.0
2017-Feb-16 16:31N 32°09' W 080°48'3 3.5
2017-Feb-16 15:33N 32°13' W 080°47'4 4.0
2017-Feb-16 14:33N 32°16' W 080°44'0 0.0
2017-Feb-16 13:31N 32°16' W 080°44'0 0.0
2017-Feb-16 12:30N 32°16' W 080°44'0 0.1
2017-Feb-16 11:31N 32°16' W 080°44'0 0.0
2017-Feb-16 10:33N 32°16' W 080°44'0 0.0
2017-Feb-16 09:33N 32°16' W 080°44'0 0.0
2017-Feb-16 08:33N 32°16' W 080°44'0 0.0
2017-Feb-16 07:31N 32°16' W 080°44'0 0.0
2017-Feb-16 06:32N 32°16' W 080°44'0 0.0
2017-Feb-16 05:27N 32°16' W 080°44'0 0.0
2017-Feb-15 16:19N 32°16' W 080°44'0 0.1
2017-Feb-15 15:32N 32°16' W 080°44'0 0.0
2017-Feb-15 04:15N 32°16' W 080°44'0 0.0
2017-Feb-14 15:17N 32°16' W 080°44'0 0.0
2017-Feb-14 14:32N 32°16' W 080°44'0 0.0
2017-Feb-14 13:33N 32°16' W 080°44'0 0.0
2017-Feb-14 12:33N 32°16' W 080°44'0 0.0
2017-Feb-14 11:33N 32°16' W 080°44'0 0.0
2017-Feb-14 10:33N 32°16' W 080°44'0 0.0
2017-Feb-14 09:33N 32°16' W 080°44'0 0.0
2017-Feb-14 08:33N 32°16' W 080°44'0 0.0
2017-Feb-14 07:33N 32°16' W 080°44'0 0.0
2017-Feb-14 06:33N 32°16' W 080°44'0 0.0
2017-Feb-14 05:29N 32°16' W 080°44'0 0.0
2017-Feb-14 04:32N 32°16' W 080°44'0 0.0
2017-Feb-14 03:33N 32°16' W 080°44'0 0.0
2017-Feb-14 02:33N 32°16' W 080°44'0 0.0
2017-Feb-14 01:33N 32°16' W 080°44'0 0.0
2017-Feb-14 00:33N 32°16' W 080°44'0 0.0
2017-Feb-13 23:33N 32°16' W 080°44'0 0.0
2017-Feb-13 22:32N 32°16' W 080°44'  

Dump ship's entire track history